createdAt,value
2017-12-11T00:00:50.288Z,94711.60
2017-12-11T00:01:53.291Z,94682.10
2017-12-11T00:02:56.270Z,94742.22
2017-12-11T00:03:59.249Z,94737.19
2017-12-11T00:05:02.245Z,94749.92
2017-12-11T00:06:05.264Z,94733.68
2017-12-11T00:07:08.315Z,94752.25
2017-12-11T00:08:11.276Z,94757.64
2017-12-11T00:09:14.538Z,94756.52
2017-12-11T00:10:17.496Z,94754.94
2017-12-11T00:11:20.487Z,94766.13
2017-12-11T00:12:23.509Z,94753.91
2017-12-11T00:13:26.469Z,94750.00
2017-12-11T00:14:29.421Z,94726.42
2017-12-11T00:15:32.703Z,94788.63
2017-12-11T00:16:35.711Z,94786.84
2017-12-11T00:17:38.671Z,94782.92
2017-12-11T00:18:41.615Z,94772.65
2017-12-11T00:19:44.541Z,94786.58
2017-12-11T00:20:47.504Z,94802.62
2017-12-11T00:21:50.737Z,94800.98
2017-12-11T00:22:53.685Z,94777.70
2017-12-11T00:23:56.776Z,94792.72
2017-12-11T00:24:59.768Z,94812.74
2017-12-11T00:26:02.722Z,94816.48
2017-12-11T00:27:05.659Z,94794.50
2017-12-11T00:28:08.898Z,94819.34
2017-12-11T00:29:11.851Z,94822.80
2017-12-11T00:30:14.796Z,94820.91
2017-12-11T00:31:17.823Z,94812.07
2017-12-11T00:32:20.916Z,94831.29
2017-12-11T00:33:23.942Z,94824.45
2017-12-11T00:34:27.294Z,94829.41
2017-12-11T00:35:30.310Z,94845.44
2017-12-11T00:36:33.363Z,94807.12
2017-12-11T00:37:37.428Z,94835.33
2017-12-11T00:38:40.434Z,94825.27
2017-12-11T00:39:43.459Z,94854.02
2017-12-11T00:40:46.710Z,95345.20
2017-12-11T00:41:49.721Z,95142.38
2017-12-11T00:42:52.589Z,94844.41
2017-12-11T00:43:55.464Z,94843.70
2017-12-11T00:44:58.329Z,94847.98
2017-12-11T00:46:02.206Z,94827.47
2017-12-11T00:47:05.334Z,94852.89
2017-12-11T00:48:08.402Z,94829.11
2017-12-11T00:49:11.408Z,94849.13
2017-12-11T00:50:14.427Z,94859.08
2017-12-11T00:51:17.471Z,94886.09
2017-12-11T00:52:21.399Z,94858.83
2017-12-11T00:53:24.703Z,94842.94
2017-12-11T00:54:27.699Z,94891.36
2017-12-11T00:55:30.722Z,94872.44
2017-12-11T00:56:33.725Z,94857.05
2017-12-11T00:57:36.813Z,94862.20
2017-12-11T00:58:39.769Z,94871.28
2017-12-11T00:59:44.323Z,94868.02
2017-12-11T01:00:47.244Z,94882.41
2017-12-11T01:01:50.254Z,94869.81
2017-12-11T01:02:53.219Z,94880.13
2017-12-11T01:03:56.218Z,94879.94
2017-12-11T01:04:59.423Z,94875.89
2017-12-11T01:06:02.381Z,94869.02
2017-12-11T01:07:05.347Z,94884.33
2017-12-11T01:08:08.335Z,94886.73
2017-12-11T01:09:11.362Z,94874.05
2017-12-11T01:10:14.319Z,94879.15
2017-12-11T01:11:17.583Z,94873.61
2017-12-11T01:12:20.579Z,94877.81
2017-12-11T01:13:23.649Z,94882.19
2017-12-11T01:14:26.624Z,94873.80
2017-12-11T01:15:29.587Z,94877.61
2017-12-11T01:16:32.673Z,94854.86
2017-12-11T01:17:35.949Z,94860.66
2017-12-11T01:18:38.914Z,94866.13
2017-12-11T01:19:42.060Z,94871.53
2017-12-11T01:20:45.120Z,94869.25
2017-12-11T01:21:48.062Z,94861.23
2017-12-11T01:22:51.101Z,94853.91
2017-12-11T01:23:54.385Z,94839.05
2017-12-11T01:24:57.379Z,94854.14
2017-12-11T01:26:00.373Z,94861.16
2017-12-11T01:27:03.340Z,94861.08
2017-12-11T01:28:06.309Z,94855.38
2017-12-11T01:29:09.280Z,94859.53
2017-12-11T01:30:12.485Z,94851.06
2017-12-11T01:31:15.394Z,94854.34
2017-12-11T01:32:18.344Z,94847.22
2017-12-11T01:33:21.298Z,94855.98
2017-12-11T01:34:24.238Z,94849.77
2017-12-11T01:35:27.198Z,94856.84
2017-12-11T01:36:30.541Z,94857.51
2017-12-11T01:37:33.603Z,94848.06
2017-12-11T01:38:36.639Z,94858.86
2017-12-11T01:39:39.525Z,94851.52
2017-12-11T01:40:42.518Z,94852.66
2017-12-11T01:41:45.469Z,94852.06
2017-12-11T01:42:48.436Z,94852.00
2017-12-11T01:43:52.024Z,94854.53
2017-12-11T01:44:54.986Z,94866.16
2017-12-11T01:45:57.968Z,94870.95
2017-12-11T01:47:01.090Z,94875.66
2017-12-11T01:48:04.367Z,94883.16
2017-12-11T01:49:07.424Z,94882.41
2017-12-11T01:50:11.328Z,94879.48
2017-12-11T01:51:14.341Z,94869.29
2017-12-11T01:52:17.417Z,94868.11
2017-12-11T01:53:20.502Z,94874.54
2017-12-11T01:54:24.443Z,94877.45
2017-12-11T01:55:27.642Z,94879.63
2017-12-11T01:56:30.713Z,94884.87
2017-12-11T01:57:33.720Z,94888.41
2017-12-11T01:58:36.784Z,94889.45
2017-12-11T01:59:39.786Z,94891.02
2017-12-11T02:00:43.272Z,94893.06
2017-12-11T02:01:46.249Z,94889.66
2017-12-11T02:02:49.346Z,94891.63
2017-12-11T02:03:52.336Z,94892.15
2017-12-11T02:04:55.338Z,94890.72
2017-12-11T02:05:58.380Z,94894.33
2017-12-11T02:07:01.771Z,94893.33
2017-12-11T02:08:04.770Z,94887.52
2017-12-11T02:09:08.105Z,94882.65
2017-12-11T02:10:11.132Z,94878.45
2017-12-11T02:11:14.196Z,94876.27
2017-12-11T02:12:17.162Z,94883.31
2017-12-11T02:13:20.491Z,94880.25
2017-12-11T02:14:23.584Z,94878.52
2017-12-11T02:15:26.651Z,94880.09
2017-12-11T02:16:29.728Z,94887.42
2017-12-11T02:17:32.740Z,94893.20
2017-12-11T02:18:35.750Z,94893.13
2017-12-11T02:19:39.095Z,94890.65
2017-12-11T02:20:42.162Z,94899.04
2017-12-11T02:21:45.205Z,94892.44
2017-12-11T02:22:48.304Z,94901.43
2017-12-11T02:23:51.331Z,94911.16
2017-12-11T02:24:54.367Z,94912.97
2017-12-11T02:25:57.778Z,94926.28
2017-12-11T02:27:00.777Z,94929.88
2017-12-11T02:28:03.803Z,94930.05
2017-12-11T02:29:06.820Z,94938.87
2017-12-11T02:30:09.779Z,94937.28
2017-12-11T02:31:12.902Z,94939.55
2017-12-11T02:32:16.185Z,94942.24
2017-12-11T02:33:19.178Z,94939.53
2017-12-11T02:34:22.199Z,94948.50
2017-12-11T02:35:25.211Z,94947.55
2017-12-11T02:36:28.192Z,94951.23
2017-12-11T02:37:31.213Z,94956.02
2017-12-11T02:38:34.566Z,94962.68
2017-12-11T02:39:37.614Z,94961.47
2017-12-11T02:40:40.612Z,94963.34
2017-12-11T02:41:43.577Z,94964.36
2017-12-11T02:42:46.580Z,94970.81
2017-12-11T02:43:49.599Z,94967.81
2017-12-11T02:44:52.927Z,94971.70
2017-12-11T02:45:55.887Z,94977.47
2017-12-11T02:46:58.936Z,94977.41
2017-12-11T02:48:01.910Z,94980.34
2017-12-11T02:49:04.892Z,94988.42
2017-12-11T02:50:07.884Z,94995.45
2017-12-11T02:51:11.151Z,94993.02
2017-12-11T02:52:14.155Z,95009.88
2017-12-11T02:53:18.760Z,95010.70
2017-12-11T02:54:21.772Z,95019.39
2017-12-11T02:55:24.728Z,95019.39
2017-12-11T02:56:27.734Z,95017.27
2017-12-11T02:57:30.971Z,95009.90
2017-12-11T02:58:33.994Z,95017.25
2017-12-11T02:59:37.011Z,95017.80
2017-12-11T03:00:40.019Z,95026.30
2017-12-11T03:01:42.987Z,95034.77
2017-12-11T03:02:46.937Z,95045.84
2017-12-11T03:03:50.316Z,95043.52
2017-12-11T03:04:53.313Z,95033.63
2017-12-11T03:05:56.373Z,95037.11
2017-12-11T03:06:59.368Z,95034.97
2017-12-11T03:08:02.358Z,95032.44
2017-12-11T03:09:05.347Z,95031.75
2017-12-11T03:10:08.616Z,95036.10
2017-12-11T03:11:11.598Z,95041.67
2017-12-11T03:12:14.599Z,95033.73
2017-12-11T03:13:17.607Z,95037.17
2017-12-11T03:14:20.603Z,95038.09
2017-12-11T03:15:23.618Z,95046.45
2017-12-11T03:16:26.889Z,95042.34
2017-12-11T03:17:29.844Z,95046.11
2017-12-11T03:18:33.714Z,95047.64
2017-12-11T03:19:36.765Z,95043.98
2017-12-11T03:20:39.751Z,95042.53
2017-12-11T03:21:42.702Z,95049.43
2017-12-11T03:22:45.965Z,95048.70
2017-12-11T03:23:48.955Z,95046.83
2017-12-11T03:24:52.002Z,95047.36
2017-12-11T03:25:54.976Z,95044.44
2017-12-11T03:26:57.947Z,95036.63
2017-12-11T03:28:00.945Z,95040.03
2017-12-11T03:29:04.261Z,95037.45
2017-12-11T03:30:07.269Z,95036.80
2017-12-11T03:31:10.243Z,95032.60
2017-12-11T03:32:13.295Z,95029.47
2017-12-11T03:33:16.264Z,95028.36
2017-12-11T03:34:19.274Z,95028.23
2017-12-11T03:35:22.551Z,95031.44
2017-12-11T03:36:25.535Z,95024.04
2017-12-11T03:37:28.528Z,95025.94
2017-12-11T03:38:31.540Z,95032.77
2017-12-11T03:39:34.582Z,95033.05
2017-12-11T03:40:37.553Z,95027.33
2017-12-11T03:41:40.801Z,95018.82
2017-12-11T03:42:43.856Z,95011.75
2017-12-11T03:43:46.880Z,95011.71
2017-12-11T03:44:49.834Z,95009.63
2017-12-11T03:45:52.892Z,95013.02
2017-12-11T03:46:55.916Z,95014.27
2017-12-11T03:47:59.216Z,95013.83
2017-12-11T03:49:02.198Z,95009.72
2017-12-11T03:50:05.178Z,95014.36
2017-12-11T03:51:08.180Z,95012.09
2017-12-11T03:52:11.175Z,95006.36
2017-12-11T03:53:14.122Z,95002.95
2017-12-11T03:54:18.325Z,95000.42
2017-12-11T03:55:21.304Z,95002.41
2017-12-11T03:56:24.235Z,94997.58
2017-12-11T03:57:27.138Z,94992.02
2017-12-11T03:58:30.074Z,94986.48
2017-12-11T03:59:33.205Z,94984.02
2017-12-11T04:00:36.909Z,94976.39
2017-12-11T04:01:39.849Z,94982.30
2017-12-11T04:02:42.889Z,94983.01
2017-12-11T04:03:45.897Z,94975.34
2017-12-11T04:04:48.907Z,94970.28
2017-12-11T04:05:51.906Z,94969.60
2017-12-11T04:06:55.182Z,94977.52
2017-12-11T04:07:58.178Z,94976.52
2017-12-11T04:09:01.178Z,94975.65
2017-12-11T04:10:04.167Z,94978.70
2017-12-11T04:11:07.142Z,94978.19
2017-12-11T04:12:10.118Z,94971.73
2017-12-11T04:13:13.442Z,94970.51
2017-12-11T04:14:16.561Z,94968.89
2017-12-11T04:15:19.430Z,94964.59
2017-12-11T04:16:23.173Z,94969.88
2017-12-11T04:17:26.153Z,94964.08
2017-12-11T04:18:29.163Z,94953.34
2017-12-11T04:19:32.506Z,94946.89
2017-12-11T04:20:35.508Z,94944.39
2017-12-11T04:21:38.549Z,94940.45
2017-12-11T04:22:41.540Z,94936.39
2017-12-11T04:23:44.566Z,94932.96
2017-12-11T04:24:47.588Z,94934.05
2017-12-11T04:25:50.924Z,94938.31
2017-12-11T04:26:53.963Z,94930.84
2017-12-11T04:27:56.942Z,94922.78
2017-12-11T04:28:59.916Z,94920.47
2017-12-11T04:30:02.933Z,94908.82
2017-12-11T04:31:05.916Z,94907.78
2017-12-11T04:32:09.217Z,94906.57
2017-12-11T04:33:12.222Z,94907.63
2017-12-11T04:34:15.258Z,94896.47
2017-12-11T04:35:18.215Z,94894.34
2017-12-11T04:36:21.214Z,94893.22
2017-12-11T04:37:24.199Z,94899.38
2017-12-11T04:38:27.442Z,94892.19
2017-12-11T04:39:30.450Z,94899.50
2017-12-11T04:40:33.531Z,94906.28
2017-12-11T04:41:36.542Z,94909.77
2017-12-11T04:42:39.489Z,94908.64
2017-12-11T04:43:42.427Z,94912.82
2017-12-11T04:44:45.667Z,94906.72
2017-12-11T04:45:48.699Z,94905.92
2017-12-11T04:46:51.696Z,94897.90
2017-12-11T04:47:54.696Z,94897.52
2017-12-11T04:48:57.659Z,94891.70
2017-12-11T04:50:00.658Z,94893.39
2017-12-11T04:51:03.980Z,94899.16
2017-12-11T04:52:06.976Z,94910.72
2017-12-11T04:53:09.981Z,94919.21
2017-12-11T04:54:12.998Z,94917.63
2017-12-11T04:55:16.028Z,94916.19
2017-12-11T04:56:19.045Z,94918.16
2017-12-11T04:57:22.330Z,94917.89
2017-12-11T04:58:25.340Z,94931.73
2017-12-11T04:59:28.324Z,94933.58
2017-12-11T05:00:31.369Z,94931.78
2017-12-11T05:01:34.348Z,94934.63
2017-12-11T05:02:37.350Z,94942.57
2017-12-11T05:03:40.672Z,94946.86
2017-12-11T05:04:43.707Z,94938.83
2017-12-11T05:05:46.617Z,94939.48
2017-12-11T05:06:49.603Z,94934.93
2017-12-11T05:07:52.574Z,94934.44
2017-12-11T05:08:55.522Z,94940.27
2017-12-11T05:09:58.754Z,94928.05
2017-12-11T05:11:01.678Z,94926.17
2017-12-11T05:12:04.735Z,94924.19
2017-12-11T05:13:08.511Z,94921.27
2017-12-11T05:14:11.786Z,94920.03
2017-12-11T05:15:14.875Z,94913.28
2017-12-11T05:16:18.200Z,94913.86
2017-12-11T05:17:21.229Z,94912.35
2017-12-11T05:18:24.259Z,94904.52
2017-12-11T05:19:27.294Z,94901.58
2017-12-11T05:20:30.293Z,94902.33
2017-12-11T05:21:33.310Z,94900.92
2017-12-11T05:22:36.642Z,94894.27
2017-12-11T05:23:39.914Z,94891.03
2017-12-11T05:24:43.526Z,94885.75
2017-12-11T05:25:46.550Z,94880.68
2017-12-11T05:26:49.546Z,94879.77
2017-12-11T05:27:52.582Z,94882.13
2017-12-11T05:28:55.939Z,94879.87
2017-12-11T05:29:58.912Z,94872.56
2017-12-11T05:31:01.896Z,94883.62
2017-12-11T05:32:04.961Z,94877.27
2017-12-11T05:33:07.986Z,94867.42
2017-12-11T05:34:11.083Z,94861.11
2017-12-11T05:35:14.377Z,94857.18
2017-12-11T05:36:17.383Z,94852.64
2017-12-11T05:37:20.407Z,94847.58
2017-12-11T05:38:23.436Z,94836.95
2017-12-11T05:39:26.459Z,94837.10
2017-12-11T05:40:29.439Z,94841.25
2017-12-11T05:41:32.538Z,94840.37
2017-12-11T05:42:35.837Z,94840.67
2017-12-11T05:43:38.802Z,94832.77
2017-12-11T05:44:41.818Z,94830.20
2017-12-11T05:45:44.806Z,94826.11
2017-12-11T05:46:48.242Z,94826.22
2017-12-11T05:47:51.296Z,94833.40
2017-12-11T05:48:54.316Z,94836.05
2017-12-11T05:49:57.282Z,94849.61
2017-12-11T05:51:00.286Z,94855.28
2017-12-11T05:52:03.328Z,94861.45
2017-12-11T05:53:06.686Z,94863.73
2017-12-11T05:54:09.695Z,94863.94
2017-12-11T05:55:12.746Z,94862.94
2017-12-11T05:56:15.812Z,94868.75
2017-12-11T05:57:20.516Z,94867.07
2017-12-11T05:58:24.095Z,94871.81
2017-12-11T05:59:27.639Z,94869.88
2017-12-11T06:00:30.674Z,94867.73
2017-12-11T06:01:33.628Z,94865.68
2017-12-11T06:02:36.653Z,94868.85
2017-12-11T06:03:39.694Z,94875.88
2017-12-11T06:04:42.743Z,94873.42
2017-12-11T06:05:46.220Z,94875.92
2017-12-11T06:06:49.302Z,94881.73
2017-12-11T06:07:52.318Z,94882.06
2017-12-11T06:08:55.254Z,94880.25
2017-12-11T06:09:58.183Z,94879.97
2017-12-11T06:11:01.115Z,94878.99
2017-12-11T06:12:04.515Z,94872.25
2017-12-11T06:13:07.459Z,94878.95
2017-12-11T06:14:10.482Z,94877.72
2017-12-11T06:15:13.687Z,94878.98
2017-12-11T06:16:16.737Z,94872.76
2017-12-11T06:17:19.758Z,94876.86
2017-12-11T06:18:23.189Z,94864.44
2017-12-11T06:19:26.225Z,94863.20
2017-12-11T06:20:29.402Z,94863.70
2017-12-11T06:21:32.461Z,94861.73
2017-12-11T06:22:36.046Z,94853.59
2017-12-11T06:23:39.065Z,94849.81
2017-12-11T06:24:42.486Z,94842.83
2017-12-11T06:25:45.461Z,94833.31
2017-12-11T06:26:48.493Z,94831.95
2017-12-11T06:27:51.527Z,94828.61
2017-12-11T06:28:54.603Z,94828.09
2017-12-11T06:29:57.822Z,94819.19
2017-12-11T06:31:01.328Z,94811.16
2017-12-11T06:32:04.387Z,94804.13
2017-12-11T06:33:07.508Z,94799.34
2017-12-11T06:34:10.568Z,94794.99
2017-12-11T06:35:13.896Z,94794.89
2017-12-11T06:36:16.915Z,94796.69
2017-12-11T06:37:20.341Z,94795.64
2017-12-11T06:38:23.423Z,94788.17
2017-12-11T06:39:26.450Z,94790.00
2017-12-11T06:40:29.725Z,94795.44
2017-12-11T06:41:32.816Z,94793.73
2017-12-11T06:42:35.753Z,94805.27
2017-12-11T06:43:39.062Z,94809.74
2017-12-11T06:44:42.014Z,94810.94
2017-12-11T06:45:44.994Z,94812.80
2017-12-11T06:46:48.536Z,94811.33
2017-12-11T06:47:51.481Z,94816.08
2017-12-11T06:48:54.422Z,94819.62
2017-12-11T06:49:57.892Z,94817.23
2017-12-11T06:51:00.909Z,94829.65
2017-12-11T06:52:03.926Z,94822.34
2017-12-11T06:53:06.959Z,94820.14
2017-12-11T06:54:09.982Z,94821.81
2017-12-11T06:55:13.106Z,94825.84
2017-12-11T06:56:16.566Z,94814.26
2017-12-11T06:57:19.568Z,94811.02
2017-12-11T06:58:22.553Z,94812.15
2017-12-11T06:59:25.620Z,94809.91
2017-12-11T07:00:28.629Z,94810.88
2017-12-11T07:01:31.664Z,94807.66
2017-12-11T07:02:34.917Z,94807.27
2017-12-11T07:03:38.105Z,94812.66
2017-12-11T07:04:42.272Z,94811.11
2017-12-11T07:05:45.321Z,94804.07
2017-12-11T07:06:48.306Z,94803.11
2017-12-11T07:07:51.300Z,94801.30
2017-12-11T07:08:54.565Z,94806.86
2017-12-11T07:09:57.517Z,94805.88
2017-12-11T07:11:00.602Z,94800.55
2017-12-11T07:12:03.630Z,94799.36
2017-12-11T07:13:06.540Z,94803.40
2017-12-11T07:14:09.446Z,94803.02
2017-12-11T07:15:12.687Z,94805.95
2017-12-11T07:16:15.675Z,94804.75
2017-12-11T07:17:18.660Z,94801.70
2017-12-11T07:18:21.620Z,94808.27
2017-12-11T07:19:24.844Z,94812.45
2017-12-11T07:20:27.921Z,94809.61
2017-12-11T07:21:31.313Z,94807.15
2017-12-11T07:22:34.357Z,94809.92
2017-12-11T07:23:38.258Z,94807.52
2017-12-11T07:24:41.320Z,94801.30
2017-12-11T07:25:44.383Z,94801.17
2017-12-11T07:26:47.403Z,94804.77
2017-12-11T07:27:50.543Z,94803.20
2017-12-11T07:28:53.558Z,94802.52
2017-12-11T07:29:56.689Z,94800.80
2017-12-11T07:30:59.772Z,94806.11
2017-12-11T07:32:02.959Z,94807.06
2017-12-11T07:33:06.062Z,94806.42
2017-12-11T07:34:09.125Z,94809.25
2017-12-11T07:35:12.194Z,94800.78
2017-12-11T07:36:16.953Z,94802.59
2017-12-11T07:37:20.207Z,94804.08
2017-12-11T07:38:23.716Z,94806.03
2017-12-11T07:39:27.185Z,94813.81
2017-12-11T07:40:30.503Z,94811.05
2017-12-11T07:41:33.421Z,94811.58
2017-12-11T07:42:38.381Z,94807.00
2017-12-11T07:43:41.416Z,94806.93
2017-12-11T07:44:44.882Z,94804.63
2017-12-11T07:45:47.946Z,94804.02
2017-12-11T07:46:51.045Z,94803.05
2017-12-11T07:47:54.083Z,94799.89
2017-12-11T07:48:57.152Z,94787.32
2017-12-11T07:50:00.151Z,94793.53
2017-12-11T07:51:03.505Z,94787.98
2017-12-11T07:52:06.599Z,94780.05
2017-12-11T07:53:09.613Z,94779.45
2017-12-11T07:54:13.200Z,94785.00
2017-12-11T07:55:17.170Z,94780.88
2017-12-11T07:56:20.198Z,94778.98
2017-12-11T07:57:23.637Z,94769.05
2017-12-11T07:58:26.686Z,94759.77
2017-12-11T07:59:29.720Z,94756.60
2017-12-11T08:00:34.094Z,94760.31
2017-12-11T08:01:37.079Z,94750.91
2017-12-11T08:02:40.188Z,94762.66
2017-12-11T08:03:43.638Z,94765.66
2017-12-11T08:04:46.675Z,94760.47
2017-12-11T08:05:49.707Z,94760.34
2017-12-11T08:06:52.700Z,94763.27
2017-12-11T08:07:55.684Z,94769.20
2017-12-11T08:08:58.719Z,94776.84
2017-12-11T08:10:02.116Z,94776.09
2017-12-11T08:11:05.158Z,94771.30
2017-12-11T08:12:08.217Z,94774.36
2017-12-11T08:13:11.272Z,94764.63
2017-12-11T08:14:14.478Z,94756.76
2017-12-11T08:15:17.448Z,94760.14
2017-12-11T08:16:20.898Z,94767.06
2017-12-11T08:17:23.846Z,94763.35
2017-12-11T08:18:26.836Z,94770.84
2017-12-11T08:19:29.780Z,94763.80
2017-12-11T08:20:32.760Z,94764.18
2017-12-11T08:21:36.080Z,94763.13
2017-12-11T08:22:39.036Z,94765.00
2017-12-11T08:23:41.995Z,94771.14
2017-12-11T08:24:44.962Z,94775.75
2017-12-11T08:25:48.004Z,94768.81
2017-12-11T08:26:51.035Z,94765.66
2017-12-11T08:27:54.424Z,94767.39
2017-12-11T08:28:57.447Z,94767.47
2017-12-11T08:30:00.523Z,94774.73
2017-12-11T08:31:03.769Z,94769.06
2017-12-11T08:32:06.829Z,94768.66
2017-12-11T08:33:09.844Z,94752.94
2017-12-11T08:34:13.454Z,94743.56
2017-12-11T08:35:16.478Z,94752.77
2017-12-11T08:36:19.483Z,94749.61
2017-12-11T08:37:22.396Z,94743.88
2017-12-11T08:38:25.312Z,94746.03
2017-12-11T08:39:28.209Z,94744.55
2017-12-11T08:40:31.610Z,94751.75
2017-12-11T08:41:34.645Z,94742.52
2017-12-11T08:42:37.708Z,94752.03
2017-12-11T08:43:40.686Z,94757.59
2017-12-11T08:44:43.649Z,94747.45
2017-12-11T08:45:46.622Z,94746.95
2017-12-11T08:46:50.938Z,94746.06
2017-12-11T08:47:54.000Z,94740.14
2017-12-11T08:48:57.009Z,94738.47
2017-12-11T08:50:00.009Z,94735.47
2017-12-11T08:51:03.010Z,94741.70
2017-12-11T08:52:06.036Z,94733.46
2017-12-11T08:53:09.703Z,94742.97
2017-12-11T08:54:12.734Z,94737.63
2017-12-11T08:55:15.819Z,94734.95
2017-12-11T08:56:18.838Z,94729.41
2017-12-11T08:57:21.850Z,94732.78
2017-12-11T08:58:24.882Z,94732.34
2017-12-11T08:59:28.354Z,94721.37
2017-12-11T09:00:33.001Z,94719.67
2017-12-11T09:01:36.107Z,94701.87
2017-12-11T09:02:39.372Z,94715.06
2017-12-11T09:03:42.429Z,94715.38
2017-12-11T09:04:45.535Z,94696.72
2017-12-11T09:05:48.854Z,94705.70
2017-12-11T09:06:52.661Z,94710.13
2017-12-11T09:07:55.733Z,94717.09
2017-12-11T09:08:58.778Z,94706.69
2017-12-11T09:10:01.846Z,94712.91
2017-12-11T09:11:04.930Z,94699.01
2017-12-11T09:12:08.278Z,94711.23
2017-12-11T09:13:11.297Z,94685.08
2017-12-11T09:14:14.322Z,94697.24
2017-12-11T09:15:17.318Z,94708.19
2017-12-11T09:16:21.132Z,94690.55
2017-12-11T09:17:24.058Z,94707.66
2017-12-11T09:18:27.439Z,94697.30
2017-12-11T09:19:30.513Z,94703.66
2017-12-11T09:20:33.530Z,94690.77
2017-12-11T09:21:36.572Z,94664.86
2017-12-11T09:22:39.580Z,94693.77
2017-12-11T09:23:42.548Z,94693.47
2017-12-11T09:24:45.738Z,94682.02
2017-12-11T09:25:48.755Z,94679.39
2017-12-11T09:26:51.717Z,94684.19
2017-12-11T09:27:54.715Z,94674.15
2017-12-11T09:28:57.696Z,94683.81
2017-12-11T09:30:00.683Z,94680.87
2017-12-11T09:31:04.054Z,94664.87
2017-12-11T09:32:07.120Z,94686.38
2017-12-11T09:33:10.174Z,94686.38
2017-12-11T09:34:13.254Z,94684.11
2017-12-11T09:35:16.223Z,94675.20
2017-12-11T09:36:19.171Z,94669.59
2017-12-11T09:37:22.497Z,94672.49
2017-12-11T09:38:25.403Z,94655.42
2017-12-11T09:39:28.334Z,94653.29
2017-12-11T09:40:31.282Z,94636.47
2017-12-11T09:41:34.210Z,94633.17
2017-12-11T09:42:37.190Z,94633.38
2017-12-11T09:43:40.465Z,94640.89
2017-12-11T09:44:43.470Z,94633.05
2017-12-11T09:45:46.463Z,94635.98
2017-12-11T09:46:49.517Z,94633.78
2017-12-11T09:47:52.886Z,94627.48
2017-12-11T09:48:55.891Z,94615.09
2017-12-11T09:50:00.293Z,94620.85
2017-12-11T09:51:03.346Z,94617.66
2017-12-11T09:52:06.357Z,94610.77
2017-12-11T09:53:09.412Z,94613.16
2017-12-11T09:54:12.340Z,94614.95
2017-12-11T09:55:15.314Z,94615.52
2017-12-11T09:56:18.674Z,94619.00
2017-12-11T09:57:21.641Z,94615.52
2017-12-11T09:58:24.886Z,94616.05
2017-12-11T09:59:27.855Z,94611.39
2017-12-11T10:00:30.896Z,94616.70
2017-12-11T10:01:34.437Z,94603.45
2017-12-11T10:02:37.888Z,94602.83
2017-12-11T10:03:40.914Z,94596.17
2017-12-11T10:04:43.942Z,94597.52
2017-12-11T10:05:46.992Z,94592.59
2017-12-11T10:06:50.205Z,94590.77
2017-12-11T10:07:53.187Z,94593.26
2017-12-11T10:08:56.660Z,94579.91
2017-12-11T10:09:59.735Z,94579.34
2017-12-11T10:11:02.786Z,94569.87
2017-12-11T10:12:05.789Z,94567.57
2017-12-11T10:13:08.824Z,94559.22
2017-12-11T10:14:11.849Z,94561.52
2017-12-11T10:15:15.231Z,94557.12
2017-12-11T10:16:20.381Z,94558.81
2017-12-11T10:17:23.408Z,94549.80
2017-12-11T10:18:26.405Z,94546.87
2017-12-11T10:19:29.455Z,94533.66
2017-12-11T10:20:32.327Z,94540.28
2017-12-11T10:21:35.556Z,94535.22
2017-12-11T10:22:38.471Z,94522.91
2017-12-11T10:23:41.430Z,94528.17
2017-12-11T10:24:44.377Z,94515.66
2017-12-11T10:25:47.430Z,94518.73
2017-12-11T10:26:50.443Z,94514.77
2017-12-11T10:27:54.016Z,94511.05
2017-12-11T10:28:57.029Z,94510.56
2017-12-11T10:30:00.054Z,94505.49
2017-12-11T10:31:03.064Z,94490.95
2017-12-11T10:32:06.058Z,94493.94
2017-12-11T10:33:09.150Z,94486.53
2017-12-11T10:34:12.524Z,94488.39
2017-12-11T10:35:15.513Z,94482.05
2017-12-11T10:36:18.568Z,94470.34
2017-12-11T10:37:21.598Z,94475.41
2017-12-11T10:38:24.893Z,94485.27
2017-12-11T10:39:27.948Z,94475.59
2017-12-11T10:40:31.354Z,94463.20
2017-12-11T10:41:34.410Z,94449.63
2017-12-11T10:42:37.496Z,94445.17
2017-12-11T10:43:40.506Z,94451.55
2017-12-11T10:44:43.538Z,94452.41
2017-12-11T10:45:46.605Z,94440.69
2017-12-11T10:46:49.919Z,94444.84
2017-12-11T10:47:52.851Z,94438.20
2017-12-11T10:48:55.923Z,94429.53
2017-12-11T10:49:58.986Z,94439.77
2017-12-11T10:51:02.045Z,94427.54
2017-12-11T10:52:05.060Z,94413.66
2017-12-11T10:53:08.463Z,94409.41
2017-12-11T10:54:11.482Z,94403.27
2017-12-11T10:55:15.558Z,94398.19
2017-12-11T10:56:18.632Z,94387.14
2017-12-11T10:57:21.689Z,94384.42
2017-12-11T10:58:24.727Z,94387.83
2017-12-11T10:59:28.067Z,94380.66
2017-12-11T11:00:31.434Z,94383.64
2017-12-11T11:01:34.571Z,94386.70
2017-12-11T11:02:37.724Z,94381.72
2017-12-11T11:03:40.720Z,94383.14
2017-12-11T11:04:43.742Z,94374.12
2017-12-11T11:05:47.128Z,94370.63
2017-12-11T11:06:50.243Z,94349.21
2017-12-11T11:07:53.290Z,94368.77
2017-12-11T11:08:56.416Z,94368.84
2017-12-11T11:09:59.478Z,94372.34
2017-12-11T11:11:03.198Z,94381.16
2017-12-11T11:12:06.751Z,94385.42
2017-12-11T11:13:09.836Z,94394.25
2017-12-11T11:14:12.884Z,94391.56
2017-12-11T11:15:15.889Z,94397.98
2017-12-11T11:16:19.143Z,94390.96
2017-12-11T11:17:22.280Z,94380.78
2017-12-11T11:18:25.700Z,94384.16
2017-12-11T11:19:29.041Z,94385.14
2017-12-11T11:20:32.014Z,94395.59
2017-12-11T11:21:35.026Z,94397.83
2017-12-11T11:22:38.111Z,94405.72
2017-12-11T11:23:41.893Z,94410.34
2017-12-11T11:24:45.501Z,94421.48
2017-12-11T11:25:48.658Z,94431.55
2017-12-11T11:26:51.798Z,94425.49
2017-12-11T11:27:54.856Z,94432.27
2017-12-11T11:28:57.896Z,94428.58
2017-12-11T11:30:00.885Z,94425.91
2017-12-11T11:31:03.954Z,94411.08
2017-12-11T11:32:07.589Z,94419.09
2017-12-11T11:33:12.116Z,94427.13
2017-12-11T11:34:15.181Z,94417.73
2017-12-11T11:35:18.308Z,94416.68
2017-12-11T11:36:21.763Z,94436.98
2017-12-11T11:37:24.862Z,94436.70
2017-12-11T11:38:27.823Z,94436.84
2017-12-11T11:39:30.762Z,94441.05
2017-12-11T11:40:33.699Z,94445.17
2017-12-11T11:41:36.697Z,94440.27
2017-12-11T11:42:39.949Z,94429.95
2017-12-11T11:43:44.009Z,94432.66
2017-12-11T11:44:47.135Z,94428.15
2017-12-11T11:45:50.232Z,94424.29
2017-12-11T11:46:53.169Z,94424.23
2017-12-11T11:47:56.080Z,94424.39
2017-12-11T11:48:59.536Z,94424.56
2017-12-11T11:50:02.600Z,94410.95
2017-12-11T11:51:05.611Z,94413.73
2017-12-11T11:52:08.706Z,94416.41
2017-12-11T11:53:11.756Z,94408.39
2017-12-11T11:54:14.756Z,94402.77
2017-12-11T11:55:18.299Z,94392.86
2017-12-11T11:56:21.347Z,94390.42
2017-12-11T11:57:24.393Z,94393.70
2017-12-11T11:58:27.457Z,94391.98
2017-12-11T11:59:30.557Z,94391.70
2017-12-11T12:00:33.625Z,94388.32
2017-12-11T12:01:37.099Z,94393.53
2017-12-11T12:02:40.033Z,94397.97
2017-12-11T12:03:43.059Z,94390.63
2017-12-11T12:04:46.009Z,94385.31
2017-12-11T12:05:48.964Z,94389.64
2017-12-11T12:06:52.293Z,94401.72
2017-12-11T12:07:56.186Z,94408.52
2017-12-11T12:08:59.207Z,94410.45
2017-12-11T12:10:02.213Z,94419.05
2017-12-11T12:11:05.258Z,94418.37
2017-12-11T12:12:08.342Z,94406.83
2017-12-11T12:13:11.401Z,94392.89
2017-12-11T12:14:14.736Z,94400.30
2017-12-11T12:15:17.752Z,94409.74
2017-12-11T12:16:20.795Z,94401.05
2017-12-11T12:17:23.839Z,94404.33
2017-12-11T12:18:26.886Z,94403.11
2017-12-11T12:19:30.384Z,94391.94
2017-12-11T12:20:33.925Z,94390.35
2017-12-11T12:21:37.008Z,94385.65